Halifax Express — VRMW7 — position and weather

sailwx.info

Track history (hours):
 
Tides and Currents Weather Stations Pressure Air Temp Water Temp Dewpoint Dewpoint Depression Visibility Wind Speed Wind Dir Waves Ship Positions

Halifax Express

Last reported at 2017-Oct-19 17:46 UTC. Time now 2017-Oct-20 01:42 UTC.
Position N 36°00' W 005°09'.

Length 294 m; draft 11.2 m.

Type: Cargo ship. MMSI: 477133700.

Date/timePositionNaut miles runAvg speedWind from/ knotsBaromVisibWave heightAir tempDewpointWater temp
2017-Oct-19 17:46N 36°00' W 005°09'518.4
2017-Oct-19 17:30N 35°59' W 005°15'1019.5
2017-Oct-19 17:00N 35°57' W 005°27'6 0.5
2017-Oct-19 05:38N 35°54' W 005°33'0 0.2
2017-Oct-19 05:28N 35°54' W 005°33'0 0.3
2017-Oct-19 04:08N 35°54' W 005°32'0 0.4
2017-Oct-19 03:18N 35°54' W 005°33'0 1.6
2017-Oct-19 03:00N 35°54' W 005°32'0 0.4
2017-Oct-19 02:30N 35°54' W 005°32'1 1.7
2017-Oct-19 01:54N 35°54' W 005°32'1 1.3
2017-Oct-19 01:30N 35°54' W 005°32'1 1.1
2017-Oct-19 00:55N 35°54' W 005°33'0 0.6
2017-Oct-19 00:30N 35°54' W 005°33'1 2.0
2017-Oct-18 23:52N 35°55' W 005°34'2 5.3
2017-Oct-18 23:25N 35°54' W 005°37'2 5.1
2017-Oct-18 23:00N 35°54' W 005°39'3 6.4
2017-Oct-18 22:30N 35°54' W 005°43'4 7.5
2017-Oct-18 22:00N 35°54' W 005°48'4 8.1
2017-Oct-18 21:29N 35°54' W 005°53'5 7.2
2017-Oct-18 20:46N 35°54' W 005°60'2 7.1
2017-Oct-18 20:30N 35°54' W 006°02'4 7.2
2017-Oct-18 19:56N 35°53' W 006°07'3 7.2
2017-Oct-18 19:30N 35°53' W 006°11'19613.6
2017-Oct-18 05:05N 37°36' W 009°39'218.1
2017-Oct-18 04:58N 37°39' W 009°39'918.1
2017-Oct-18 04:28N 37°47' W 009°39'817.9
2017-Oct-18 04:00N 37°56' W 009°37'917.9
2017-Oct-18 03:31N 38°04' W 009°35'917.8
2017-Oct-18 03:01N 38°13' W 009°33'917.7
2017-Oct-18 02:31N 38°22' W 009°31'918.0
2017-Oct-18 02:01N 38°31' W 009°28'816.9
2017-Oct-18 01:30N 38°39' W 009°25'2 4.5
2017-Oct-18 01:00N 38°37' W 009°24'713.8
2017-Oct-18 00:30N 38°41' W 009°16'510.3
2017-Oct-18 00:00N 38°42' W 009°10'0 0.0
2017-Oct-17 22:01N 38°42' W 009°10'0 0.0
2017-Oct-17 21:43N 38°42' W 009°10'0 0.0
2017-Oct-17 19:52N 38°42' W 009°10'0 0.0
2017-Oct-17 19:10N 38°42' W 009°10'0 0.0
2017-Oct-17 18:49N 38°42' W 009°10'0 0.0
2017-Oct-17 18:28N 38°42' W 009°10'0 0.0
2017-Oct-17 17:49N 38°42' W 009°10'0 0.0
2017-Oct-17 17:22N 38°42' W 009°10'0 0.0
2017-Oct-17 15:10N 38°42' W 009°10'0 0.0
2017-Oct-17 13:04N 38°42' W 009°10'0 0.0
2017-Oct-17 12:58N 38°42' W 009°10'0 0.0
2017-Oct-17 12:10N 38°42' W 009°10'0 0.0
2017-Oct-17 11:58N 38°42' W 009°10'0 0.0
2017-Oct-17 11:25N 38°42' W 009°10'0 0.0
2017-Oct-17 10:46N 38°42' W 009°10'0 0.2
2017-Oct-17 10:30N 38°42' W 009°10'1 2.9
2017-Oct-17 10:00N 38°41' W 009°11'714.4
2017-Oct-17 09:31N 38°39' W 009°20'4 7.8
2017-Oct-17 09:00N 38°40' W 009°25'3 6.7
2017-Oct-17 08:30N 38°38' W 009°29'4 8.4
2017-Oct-17 08:00N 38°35' W 009°33'816.8
2017-Oct-17 07:30N 38°34' W 009°44'816.9
2017-Oct-17 07:01N 38°31' W 009°54'816.8
2017-Oct-17 06:31N 38°28' W 010°04'916.8
2017-Oct-17 05:59N 38°26' W 010°15'917.0
2017-Oct-17 05:29N 38°24' W 010°25'817.1
2017-Oct-17 05:01N 38°22' W 010°35'9916.4
2017-Oct-16 23:00N 37°54' W 012°36'18717.0 280 / 91025.0 20.014.920.0
2017-Oct-16 12:00N 37°06' W 016°24'20316.9 130 / 21026.0 22.015.422.0
2017-Oct-16 00:00N 36°18' W 020°30'39016.2 360 / 201024.0 20.010.921.0
2017-Oct-15 00:00N 34°36' W 028°12'16915.4 340 / 341019.0 21.017.822.0
2017-Oct-14 13:00N 33°54' W 031°30'16113.4 350 / 371016.0 24.021.023.0
2017-Oct-14 01:00N 33°12' W 034°36'17614.7 180 / 241015.0 25.020.524.0
2017-Oct-13 13:00N 32°30' W 038°00'37716.4 330 / 251018.0 24.021.023.0
2017-Oct-12 14:00N 30°48' W 045°06'20316.9 360 / 41021.0 26.018.224.0
2017-Oct-12 02:00N 29°18' W 048°36'17616.0 050 / 21022.0 25.022.026.0
2017-Oct-11 15:00N 28°00' W 051°36'19616.3 090 / 141022.0 27.024.126.0
2017-Oct-11 03:00N 26°24' W 054°48'19316.1 100 / 221020.010.8 26.023.126.0
2017-Oct-10 15:00N 24°48' W 057°54'   090 / 301019.0 28.025.225.0
Track history (hours):
 
Tides and Currents Weather Stations Pressure Air Temp Water Temp Dewpoint Dewpoint Depression Visibility Wind Speed Wind Dir Waves Ship Positions

Halifax Express

Last reported at 2017-Oct-19 17:46 UTC. Time now 2017-Oct-20 01:42 UTC.
Position N 36°00' W 005°09'.

Length 294 m; draft 11.2 m.

Type: Cargo ship. MMSI: 477133700.

Date/timePositionNaut miles runAvg speedWind from/ knotsBaromVisibWave heightAir tempDewpointWater temp
2017-Oct-19 17:46N 36°00' W 005°09'518.4
2017-Oct-19 17:30N 35°59' W 005°15'1019.5
2017-Oct-19 17:00N 35°57' W 005°27'6 0.5
2017-Oct-19 05:38N 35°54' W 005°33'0 0.2
2017-Oct-19 05:28N 35°54' W 005°33'0 0.3
2017-Oct-19 04:08N 35°54' W 005°32'0 0.4
2017-Oct-19 03:18N 35°54' W 005°33'0 1.6
2017-Oct-19 03:00N 35°54' W 005°32'0 0.4
2017-Oct-19 02:30N 35°54' W 005°32'1 1.7
2017-Oct-19 01:54N 35°54' W 005°32'1 1.3
2017-Oct-19 01:30N 35°54' W 005°32'1 1.1
2017-Oct-19 00:55N 35°54' W 005°33'0 0.6
2017-Oct-19 00:30N 35°54' W 005°33'1 2.0
2017-Oct-18 23:52N 35°55' W 005°34'2 5.3
2017-Oct-18 23:25N 35°54' W 005°37'2 5.1
2017-Oct-18 23:00N 35°54' W 005°39'3 6.4
2017-Oct-18 22:30N 35°54' W 005°43'4 7.5
2017-Oct-18 22:00N 35°54' W 005°48'4 8.1
2017-Oct-18 21:29N 35°54' W 005°53'5 7.2
2017-Oct-18 20:46N 35°54' W 005°60'2 7.1
2017-Oct-18 20:30N 35°54' W 006°02'4 7.2
2017-Oct-18 19:56N 35°53' W 006°07'3 7.2
2017-Oct-18 19:30N 35°53' W 006°11'19613.6
2017-Oct-18 05:05N 37°36' W 009°39'218.1
2017-Oct-18 04:58N 37°39' W 009°39'918.1
2017-Oct-18 04:28N 37°47' W 009°39'817.9
2017-Oct-18 04:00N 37°56' W 009°37'917.9
2017-Oct-18 03:31N 38°04' W 009°35'917.8
2017-Oct-18 03:01N 38°13' W 009°33'917.7
2017-Oct-18 02:31N 38°22' W 009°31'918.0
2017-Oct-18 02:01N 38°31' W 009°28'816.9
2017-Oct-18 01:30N 38°39' W 009°25'2 4.5
2017-Oct-18 01:00N 38°37' W 009°24'713.8
2017-Oct-18 00:30N 38°41' W 009°16'510.3
2017-Oct-18 00:00N 38°42' W 009°10'0 0.0
2017-Oct-17 22:01N 38°42' W 009°10'0 0.0
2017-Oct-17 21:43N 38°42' W 009°10'0 0.0
2017-Oct-17 19:52N 38°42' W 009°10'0 0.0
2017-Oct-17 19:10N 38°42' W 009°10'0 0.0
2017-Oct-17 18:49N 38°42' W 009°10'0 0.0
2017-Oct-17 18:28N 38°42' W 009°10'0 0.0
2017-Oct-17 17:49N 38°42' W 009°10'0 0.0
2017-Oct-17 17:22N 38°42' W 009°10'0 0.0
2017-Oct-17 15:10N 38°42' W 009°10'0 0.0
2017-Oct-17 13:04N 38°42' W 009°10'0 0.0
2017-Oct-17 12:58N 38°42' W 009°10'0 0.0
2017-Oct-17 12:10N 38°42' W 009°10'0 0.0
2017-Oct-17 11:58N 38°42' W 009°10'0 0.0
2017-Oct-17 11:25N 38°42' W 009°10'0 0.0
2017-Oct-17 10:46N 38°42' W 009°10'0 0.2
2017-Oct-17 10:30N 38°42' W 009°10'1 2.9
2017-Oct-17 10:00N 38°41' W 009°11'714.4
2017-Oct-17 09:31N 38°39' W 009°20'4 7.8
2017-Oct-17 09:00N 38°40' W 009°25'3 6.7
2017-Oct-17 08:30N 38°38' W 009°29'4 8.4
2017-Oct-17 08:00N 38°35' W 009°33'816.8
2017-Oct-17 07:30N 38°34' W 009°44'816.9
2017-Oct-17 07:01N 38°31' W 009°54'816.8
2017-Oct-17 06:31N 38°28' W 010°04'916.8
2017-Oct-17 05:59N 38°26' W 010°15'917.0
2017-Oct-17 05:29N 38°24' W 010°25'817.1
2017-Oct-17 05:01N 38°22' W 010°35'9916.4
2017-Oct-16 23:00N 37°54' W 012°36'18717.0 280 / 91025.0 20.014.920.0
2017-Oct-16 12:00N 37°06' W 016°24'20316.9 130 / 21026.0 22.015.422.0
2017-Oct-16 00:00N 36°18' W 020°30'39016.2 360 / 201024.0 20.010.921.0
2017-Oct-15 00:00N 34°36' W 028°12'16915.4 340 / 341019.0 21.017.822.0
2017-Oct-14 13:00N 33°54' W 031°30'16113.4 350 / 371016.0 24.021.023.0
2017-Oct-14 01:00N 33°12' W 034°36'17614.7 180 / 241015.0 25.020.524.0
2017-Oct-13 13:00N 32°30' W 038°00'37716.4 330 / 251018.0 24.021.023.0
2017-Oct-12 14:00N 30°48' W 045°06'20316.9 360 / 41021.0 26.018.224.0
2017-Oct-12 02:00N 29°18' W 048°36'17616.0 050 / 21022.0 25.022.026.0
2017-Oct-11 15:00N 28°00' W 051°36'19616.3 090 / 141022.0 27.024.126.0
2017-Oct-11 03:00N 26°24' W 054°48'19316.1 100 / 221020.010.8 26.023.126.0
2017-Oct-10 15:00N 24°48' W 057°54'   090 / 301019.0 28.025.225.0

Dump ship's entire track history